Time;durP1;ratioP1;P1;durP2;ratioP2;P2;SDS_P1;SDS_P2;PMS_P1;PMS_P2;Temp;Humidity;BMP_temperature;BMP_pressure;BME280_temperature;BME280_humidity;BME280_pressure;Samples;Min_cycle;Max_cycle;Signal;HPM_P1;HPM_P2
2023/09/08 00:00:46;;;;;;;13.50;8.00;;;;;;;19.06;70.46;101560.63;5087186;28;20068;-59
2023/09/08 00:03:14;;;;;;;12.93;7.60;;;;;;;19.03;71.42;101558.19;5089466;28;20080;-60
2023/09/08 00:05:41;;;;;;;9.85;6.75;;;;;;;18.99;71.53;101549.59;5089932;28;20087;-61
2023/09/08 00:08:08;;;;;;;9.80;7.30;;;;;;;18.96;72.26;101547.19;5068983;28;20471;-57
2023/09/08 00:10:36;;;;;;;11.50;7.68;;;;;;;18.93;72.03;101548.25;5085970;28;20143;-60
2023/09/08 00:13:04;;;;;;;10.75;8.43;;;;;;;18.91;72.34;101550.22;5085994;28;20131;-59
2023/09/08 00:15:35;;;;;;;19.13;8.68;;;;;;;18.88;72.95;101542.44;5085737;28;20076;-61
2023/09/08 00:18:02;;;;;;;12.38;8.07;;;;;;;18.86;72.48;101539.03;5091066;28;20135;-60
2023/09/08 00:20:29;;;;;;;11.57;7.78;;;;;;;18.83;72.67;101543.78;5086740;28;20044;-60
2023/09/08 00:22:57;;;;;;;11.57;7.88;;;;;;;18.79;73.36;101535.16;5066889;28;20131;-60
2023/09/08 00:25:24;;;;;;;12.68;8.20;;;;;;;18.76;73.16;101540.75;5085893;28;20072;-60
2023/09/08 00:27:51;;;;;;;10.40;6.78;;;;;;;18.72;73.21;101534.78;5087777;28;20146;-59
2023/09/08 00:30:18;;;;;;;10.13;8.02;;;;;;;18.69;73.28;101536.88;5084656;28;20480;-59
2023/09/08 00:32:45;;;;;;;9.02;7.15;;;;;;;18.66;73.37;101526.41;5089818;28;20048;-61
2023/09/08 00:35:13;;;;;;;12.30;8.05;;;;;;;18.65;73.54;101530.88;5085401;28;20505;-61
2023/09/08 00:37:40;;;;;;;11.00;7.38;;;;;;;18.62;74.38;101527.59;5087723;28;20159;-61
2023/09/08 00:40:08;;;;;;;15.68;8.45;;;;;;;18.59;73.62;101527.84;5087541;28;20087;-60
2023/09/08 00:42:36;;;;;;;10.77;7.72;;;;;;;18.56;74.91;101536.09;5087144;28;20135;-60
2023/09/08 00:45:04;;;;;;;10.02;6.78;;;;;;;18.53;74.79;101533.66;5086091;28;20407;-62
2023/09/08 00:47:31;;;;;;;11.95;7.43;;;;;;;18.52;74.89;101531.97;5081915;28;20060;-60
2023/09/08 00:49:58;;;;;;;10.82;7.57;;;;;;;18.48;74.68;101532.19;5083904;28;20048;-59
2023/09/08 00:52:31;;;;;;;12.48;7.93;;;;;;;18.43;75.95;101534.38;5067324;28;20078;-63
2023/09/08 00:54:59;;;;;;;14.48;7.18;;;;;;;18.39;75.11;101538.25;5083682;28;20112;-59
2023/09/08 00:57:26;;;;;;;12.52;7.68;;;;;;;18.37;76.18;101534.00;5066054;28;20590;-59
2023/09/08 00:59:54;;;;;;;12.77;6.68;;;;;;;18.33;76.39;101535.22;5086919;28;20553;-60
2023/09/08 01:02:22;;;;;;;10.82;7.30;;;;;;;18.30;76.28;101535.44;5088548;28;20566;-61
2023/09/08 01:04:50;;;;;;;17.25;7.43;;;;;;;18.28;76.27;101530.25;5063560;28;20121;-61
2023/09/08 01:07:19;;;;;;;11.88;8.32;;;;;;;18.26;76.53;101528.66;5066211;28;20171;-65
2023/09/08 01:09:47;;;;;;;12.15;8.50;;;;;;;18.24;77.38;101531.44;5081528;28;20186;-60
2023/09/08 01:12:15;;;;;;;10.45;7.57;;;;;;;18.20;76.32;101529.97;5069102;28;20588;-61
2023/09/08 01:14:42;;;;;;;13.70;7.28;;;;;;;18.18;76.41;101534.56;5088415;28;20125;-59
2023/09/08 01:17:09;;;;;;;12.00;8.38;;;;;;;18.16;77.04;101525.84;5062464;28;20056;-61
2023/09/08 01:19:36;;;;;;;9.98;7.80;;;;;;;18.14;76.81;101522.44;5070399;28;20718;-59
2023/09/08 01:22:45;;;;;;;10.50;7.57;;;;;;;18.12;76.99;101521.72;5076713;22;21058;-59
2023/09/08 01:25:19;;;;;;;9.18;7.25;;;;;;;18.08;77.23;101513.09;5068693;28;20052;-61
2023/09/08 01:27:52;;;;;;;12.38;7.72;;;;;;;18.07;77.24;101518.56;5088936;28;20460;-61
2023/09/08 01:30:21;;;;;;;12.82;8.15;;;;;;;18.06;77.17;101511.53;5085282;28;20079;-57
2023/09/08 01:32:49;;;;;;;11.18;7.63;;;;;;;18.04;77.68;101516.97;5084756;28;20537;-59
2023/09/08 01:35:16;;;;;;;11.02;7.72;;;;;;;18.02;77.67;101518.06;5066558;28;20135;-60
2023/09/08 01:37:48;;;;;;;9.20;7.80;;;;;;;18.00;77.57;101514.66;5065671;28;20131;-62
2023/09/08 01:40:16;;;;;;;11.57;8.07;;;;;;;17.98;78.98;101511.28;5082613;28;20152;-57
2023/09/08 01:42:43;;;;;;;10.57;7.68;;;;;;;17.95;78.34;101510.50;5068824;28;20087;-61
2023/09/08 01:45:10;;;;;;;12.50;7.70;;;;;;;17.94;78.06;101513.31;5085476;28;20063;-59
2023/09/08 01:47:37;;;;;;;12.52;7.97;;;;;;;17.93;79.18;101509.81;5067261;28;20135;-61
2023/09/08 01:50:05;;;;;;;10.45;7.70;;;;;;;17.91;78.50;101513.53;5083758;28;20517;-60
2023/09/08 01:52:32;;;;;;;11.10;7.30;;;;;;;17.89;78.69;101507.47;5082863;28;21805;-56
2023/09/08 01:55:00;;;;;;;12.30;7.43;;;;;;;17.86;78.94;101510.38;5085621;28;20079;-60
2023/09/08 01:57:27;;;;;;;21.25;8.73;;;;;;;17.85;79.15;101506.00;5076313;28;20079;-60
2023/09/08 01:59:54;;;;;;;10.80;7.75;;;;;;;17.83;79.08;101508.81;5082240;28;20048;-59
2023/09/08 02:02:21;;;;;;;10.88;7.72;;;;;;;17.81;80.06;101499.22;5082428;28;20043;-60
2023/09/08 02:04:49;;;;;;;8.73;7.55;;;;;;;17.78;79.23;101504.75;5085056;28;21056;-61
2023/09/08 02:07:16;;;;;;;12.23;8.93;;;;;;;17.75;79.43;101494.38;5082311;28;20499;-60
2023/09/08 02:09:43;;;;;;;11.95;7.68;;;;;;;17.72;79.65;101493.59;5058354;28;20160;-59
2023/09/08 02:12:10;;;;;;;11.30;8.18;;;;;;;17.70;79.45;101500.00;5053391;28;20083;-61
2023/09/08 02:14:38;;;;;;;12.80;8.60;;;;;;;17.66;80.27;101494.06;5063841;28;20083;-58
2023/09/08 02:17:06;;;;;;;13.65;8.27;;;;;;;17.66;79.67;101496.72;5086079;28;20144;-62
2023/09/08 02:19:33;;;;;;;18.95;9.35;;;;;;;17.64;80.70;101487.97;5080475;28;20060;-60
2023/09/08 02:22:00;;;;;;;16.75;8.40;;;;;;;17.61;80.18;101495.38;5081881;28;20529;-60
2023/09/08 02:24:27;;;;;;;9.75;8.38;;;;;;;17.61;80.02;101487.38;5084538;28;20117;-60
2023/09/08 02:26:55;;;;;;;9.15;7.85;;;;;;;17.57;80.08;101492.09;5086117;28;20062;-61
2023/09/08 02:29:22;;;;;;;12.55;9.60;;;;;;;17.55;81.30;101496.66;5081598;28;20071;-60
2023/09/08 02:31:50;;;;;;;12.80;8.75;;;;;;;17.52;80.77;101494.25;5080442;28;20597;-57
2023/09/08 02:34:17;;;;;;;13.80;8.40;;;;;;;17.50;80.79;101495.31;5083221;28;20146;-61
2023/09/08 02:36:47;;;;;;;9.55;8.15;;;;;;;17.48;80.63;101484.78;5081197;28;20456;-58
2023/09/08 02:39:15;;;;;;;12.20;8.15;;;;;;;17.47;80.67;101493.69;5083409;28;20124;-59
2023/09/08 02:41:42;;;;;;;12.00;8.20;;;;;;;17.44;80.81;101484.16;5068950;28;20036;-57
2023/09/08 02:44:09;;;;;;;11.68;7.95;;;;;;;17.43;81.40;101485.13;5087057;28;20131;-58
2023/09/08 02:46:36;;;;;;;13.20;8.93;;;;;;;17.41;81.94;101488.84;5063797;28;20072;-59
2023/09/08 02:49:04;;;;;;;9.07;7.57;;;;;;;17.39;81.00;101486.31;5085443;28;20076;-56
2023/09/08 02:51:31;;;;;;;11.02;7.80;;;;;;;17.39;81.18;101482.81;5075337;28;20044;-58
2023/09/08 02:53:58;;;;;;;14.40;9.07;;;;;;;17.37;81.32;101485.56;5089187;28;20040;-60
2023/09/08 02:56:26;;;;;;;11.80;8.68;;;;;;;17.36;81.56;101485.69;5094051;28;20052;-60
2023/09/08 02:58:54;;;;;;;12.40;8.98;;;;;;;17.34;82.83;101477.81;5093984;28;20052;-61
2023/09/08 03:01:22;;;;;;;14.93;8.52;;;;;;;17.32;82.56;101476.22;5094024;28;20055;-60
2023/09/08 03:03:49;;;;;;;10.82;8.90;;;;;;;17.29;83.02;101473.78;5088521;28;20154;-55
2023/09/08 03:06:19;;;;;;;14.30;8.82;;;;;;;17.26;82.81;101472.22;5085423;28;20447;-58
2023/09/08 03:08:46;;;;;;;10.77;8.40;;;;;;;17.26;82.82;101476.69;5082876;28;20171;-58
2023/09/08 03:11:14;;;;;;;9.77;8.40;;;;;;;17.24;82.74;101471.44;5087448;28;20515;-59
2023/09/08 03:13:41;;;;;;;14.20;9.00;;;;;;;17.22;83.74;101473.38;5087431;28;20135;-61
2023/09/08 03:16:08;;;;;;;11.05;9.05;;;;;;;17.20;82.81;101470.84;5079181;28;20331;-59
2023/09/08 03:18:36;;;;;;;11.88;8.65;;;;;;;17.20;83.57;101468.19;5083648;28;20488;-58
2023/09/08 03:21:09;;;;;;;13.05;8.85;;;;;;;17.15;82.79;101459.66;5085106;28;20142;-59
2023/09/08 03:23:37;;;;;;;10.05;7.90;;;;;;;17.15;83.55;101461.47;5082897;28;20063;-61
2023/09/08 03:26:05;;;;;;;12.93;8.80;;;;;;;17.13;83.17;101460.75;5095866;28;20078;-62
2023/09/08 03:28:33;;;;;;;10.30;8.40;;;;;;;17.12;84.38;101459.06;5082748;28;20135;-58
2023/09/08 03:31:02;;;;;;;13.63;8.65;;;;;;;17.09;83.81;101460.13;5100187;28;20056;-60
2023/09/08 03:33:29;;;;;;;12.35;8.32;;;;;;;17.09;83.84;101468.09;5085811;28;20148;-59
2023/09/08 03:35:56;;;;;;;12.40;8.68;;;;;;;17.08;83.58;101474.41;5072074;28;20400;-58
2023/09/08 03:38:24;;;;;;;11.07;9.23;;;;;;;17.08;83.82;101468.22;5068195;28;20671;-61
2023/09/08 03:40:51;;;;;;;12.60;9.45;;;;;;;17.07;84.47;101478.03;5089258;28;20139;-61
2023/09/08 03:43:18;;;;;;;14.38;9.27;;;;;;;17.04;84.10;101472.91;5081220;28;20444;-58
2023/09/08 03:45:47;;;;;;;12.07;9.27;;;;;;;17.04;84.35;101472.06;5067293;28;20048;-62
2023/09/08 03:48:14;;;;;;;12.02;9.63;;;;;;;17.03;84.31;101479.22;5087844;28;20052;-59
2023/09/08 03:50:45;;;;;;;12.13;10.13;;;;;;;17.02;83.65;101477.50;5085187;28;20098;-61
2023/09/08 03:53:12;;;;;;;10.10;8.70;;;;;;;17.00;84.01;101482.06;5087027;28;20089;-60
2023/09/08 03:55:40;;;;;;;10.40;8.75;;;;;;;16.99;83.98;101479.53;5087370;28;20078;-60
2023/09/08 03:58:07;;;;;;;11.27;8.73;;;;;;;16.96;84.05;101476.13;5083132;28;20143;-61
2023/09/08 04:00:35;;;;;;;15.60;9.43;;;;;;;16.95;85.40;101482.41;5073716;28;20098;-58
2023/09/08 04:03:03;;;;;;;14.82;9.73;;;;;;;16.93;84.81;101480.81;5082897;28;20443;-61
2023/09/08 04:05:30;;;;;;;11.95;9.95;;;;;;;16.91;84.85;101486.25;5085875;28;20134;-60
2023/09/08 04:07:57;;;;;;;13.20;8.68;;;;;;;16.90;84.89;101476.56;5089654;28;20675;-58
2023/09/08 04:10:25;;;;;;;14.55;9.23;;;;;;;16.90;85.43;101473.06;5077039;28;20056;-58
2023/09/08 04:12:52;;;;;;;14.65;10.18;;;;;;;16.86;86.13;101474.25;5082414;28;20100;-58
2023/09/08 04:15:19;;;;;;;11.55;10.35;;;;;;;16.84;86.01;101473.50;5059614;28;20098;-60
2023/09/08 04:17:47;;;;;;;13.07;9.13;;;;;;;16.81;85.45;101477.25;5083931;28;20403;-60
2023/09/08 04:20:15;;;;;;;14.57;10.38;;;;;;;16.81;85.57;101471.06;5067542;28;20147;-60
2023/09/08 04:22:42;;;;;;;19.60;9.10;;;;;;;16.76;87.26;101473.22;5063321;28;20672;-63
2023/09/08 04:25:10;;;;;;;12.05;9.43;;;;;;;16.74;86.50;101470.66;5082033;28;20429;-60
2023/09/08 04:27:38;;;;;;;13.65;10.32;;;;;;;16.74;86.72;101475.97;5087613;28;20055;-60
2023/09/08 04:30:06;;;;;;;14.60;10.02;;;;;;;16.70;86.82;101477.94;5077465;28;20390;-60
2023/09/08 04:32:34;;;;;;;16.67;11.38;;;;;;;16.69;88.48;101478.91;5079074;28;20040;-59
2023/09/08 04:35:01;;;;;;;15.73;9.93;;;;;;;16.67;87.60;101472.03;5086008;28;20439;-59
2023/09/08 04:37:30;;;;;;;16.15;10.82;;;;;;;16.66;88.24;101479.16;5075140;28;20143;-61
2023/09/08 04:39:57;;;;;;;11.07;9.98;;;;;;;16.66;88.99;101481.81;5080818;28;20048;-62
2023/09/08 04:42:25;;;;;;;14.23;10.07;;;;;;;16.67;88.19;101480.00;5083300;28;20645;-61
2023/09/08 04:44:53;;;;;;;13.13;10.25;;;;;;;16.67;88.43;101483.50;5071642;28;20506;-60
2023/09/08 04:47:20;;;;;;;17.83;10.27;;;;;;;16.70;88.54;101487.75;5061325;28;20103;-61
2023/09/08 04:49:47;;;;;;;15.80;10.23;;;;;;;16.71;88.42;101484.16;5069451;28;20143;-60
2023/09/08 04:52:15;;;;;;;12.00;10.23;;;;;;;16.72;88.19;101483.22;5071855;28;20135;-62
2023/09/08 04:54:42;;;;;;;12.52;10.02;;;;;;;16.76;88.28;101481.19;5069112;28;20048;-62
2023/09/08 04:57:09;;;;;;;10.45;9.02;;;;;;;16.77;88.22;101478.41;5045693;28;20052;-62
2023/09/08 04:59:49;;;;;;;18.13;11.27;;;;;;;16.79;88.26;101491.59;5049752;28;20137;-62
2023/09/08 05:02:18;;;;;;;14.65;10.80;;;;;;;16.82;88.85;101480.75;5073203;28;20045;-63
2023/09/08 05:04:46;;;;;;;15.98;10.73;;;;;;;16.87;88.40;101486.59;5070183;28;20032;-60
2023/09/08 05:07:13;;;;;;;13.05;10.20;;;;;;;16.92;87.91;101492.41;5077001;28;20554;-61
2023/09/08 05:09:41;;;;;;;15.88;10.55;;;;;;;16.96;87.54;101492.09;5081456;28;20121;-60
2023/09/08 05:12:08;;;;;;;16.02;10.25;;;;;;;17.00;87.21;101481.22;5069341;28;20044;-58
2023/09/08 05:14:35;;;;;;;14.45;9.63;;;;;;;17.04;86.92;101490.69;5073925;28;20051;-60
2023/09/08 05:17:04;;;;;;;14.43;10.05;;;;;;;17.06;87.28;101492.25;5065295;28;20048;-60
2023/09/08 05:19:31;;;;;;;14.15;9.70;;;;;;;17.10;86.52;101492.91;5045358;28;20066;-56
2023/09/08 05:21:59;;;;;;;12.10;8.90;;;;;;;17.12;86.65;101491.00;5068252;28;20084;-59
2023/09/08 05:24:26;;;;;;;12.10;9.57;;;;;;;17.15;86.53;101486.28;5050623;28;20604;-61
2023/09/08 05:26:54;;;;;;;13.43;9.65;;;;;;;17.20;86.53;101484.16;5075930;28;20060;-60
2023/09/08 05:29:21;;;;;;;16.25;9.52;;;;;;;17.25;86.37;101488.28;5078194;28;20518;-59
2023/09/08 05:31:49;;;;;;;12.70;10.30;;;;;;;17.29;85.75;101489.75;5076059;28;20137;-61
2023/09/08 05:34:16;;;;;;;13.90;10.73;;;;;;;17.35;85.57;101486.66;5045783;28;20134;-60
2023/09/08 05:36:44;;;;;;;12.20;9.75;;;;;;;17.40;85.87;101482.69;5071737;28;20472;-60
2023/09/08 05:39:13;;;;;;;14.15;10.13;;;;;;;17.50;84.89;101487.31;5076208;28;20055;-60
2023/09/08 05:41:40;;;;;;;14.95;9.88;;;;;;;17.60;84.36;101483.84;5078459;28;20075;-59
2023/09/08 05:44:08;;;;;;;15.23;9.93;;;;;;;17.64;84.54;101481.81;5080593;28;21976;-60
2023/09/08 05:46:35;;;;;;;13.48;10.20;;;;;;;17.72;83.92;101480.25;5080493;28;20583;-60
2023/09/08 05:49:02;;;;;;;16.50;10.65;;;;;;;17.79;83.55;101483.38;5077379;28;20138;-59
2023/09/08 05:51:31;;;;;;;13.00;10.45;;;;;;;17.88;83.32;101488.00;5069618;28;20147;-60
2023/09/08 05:53:58;;;;;;;16.75;11.07;;;;;;;17.94;82.65;101497.31;5076493;28;20054;-60
2023/09/08 05:56:29;;;;;;;11.57;9.77;;;;;;;18.01;82.25;101490.53;5077691;28;20198;-59
2023/09/08 05:58:57;;;;;;;16.05;10.88;;;;;;;18.07;81.84;101500.75;5080607;28;20044;-60
2023/09/08 06:01:25;;;;;;;12.32;9.68;;;;;;;18.16;81.58;101488.53;5072624;28;20135;-59
2023/09/08 06:03:54;;;;;;;19.55;10.30;;;;;;;18.27;80.91;101495.69;5074471;28;20183;-60
2023/09/08 06:06:22;;;;;;;19.02;11.57;;;;;;;18.34;80.50;101491.59;5062005;28;20052;-60
2023/09/08 06:08:49;;;;;;;18.15;10.77;;;;;;;18.45;80.16;101488.94;5067133;28;20075;-60
2023/09/08 06:11:17;;;;;;;17.77;9.85;;;;;;;18.56;79.57;101486.28;5085737;28;20079;-59
2023/09/08 06:13:44;;;;;;;16.73;9.75;;;;;;;18.63;78.86;101495.47;5067974;28;20090;-61
2023/09/08 06:16:11;;;;;;;23.88;10.15;;;;;;;18.71;78.49;101497.56;5077163;28;20203;-61
2023/09/08 06:18:41;;;;;;;15.40;9.77;;;;;;;18.80;77.93;101488.84;5074456;28;20046;-61
2023/09/08 06:21:09;;;;;;;18.55;9.65;;;;;;;18.90;77.13;101486.28;5077501;28;20087;-60
2023/09/08 06:23:36;;;;;;;14.65;8.90;;;;;;;19.02;76.76;101493.31;5074444;28;20599;-62
2023/09/08 06:26:04;;;;;;;13.75;9.68;;;;;;;19.06;76.34;101491.25;5077884;28;20131;-58
2023/09/08 06:28:31;;;;;;;18.27;10.48;;;;;;;19.17;76.01;101486.72;5077312;28;20573;-60
2023/09/08 06:30:59;;;;;;;28.63;12.57;;;;;;;19.20;78.07;101491.81;5080706;28;20083;-60
2023/09/08 06:33:27;;;;;;;31.40;12.07;;;;;;;19.31;77.24;101490.06;5078715;28;20066;-61
2023/09/08 06:35:54;;;;;;;21.27;10.15;;;;;;;19.44;76.80;101491.59;5070514;28;20128;-62
2023/09/08 06:38:21;;;;;;;12.88;9.15;;;;;;;19.57;75.77;101487.94;5070764;28;20089;-60
2023/09/08 06:40:49;;;;;;;16.90;9.35;;;;;;;19.66;74.94;101487.19;5076439;28;20418;-62
2023/09/08 06:43:16;;;;;;;16.30;9.32;;;;;;;19.73;74.49;101481.22;5079672;28;20506;-62
2023/09/08 06:45:48;;;;;;;18.25;9.52;;;;;;;19.82;73.82;101489.44;5076893;28;20147;-63
2023/09/08 06:48:16;;;;;;;16.90;10.23;;;;;;;19.83;74.00;101478.63;5064754;28;20059;-62
2023/09/08 06:50:43;;;;;;;16.20;9.50;;;;;;;19.94;73.86;101475.03;5080913;28;20477;-62
2023/09/08 06:53:12;;;;;;;25.58;10.38;;;;;;;20.06;72.72;101479.31;5080780;28;20097;-60
2023/09/08 06:55:39;;;;;;;16.40;9.88;;;;;;;20.01;72.56;101483.38;5077528;28;20610;-62
2023/09/08 06:58:11;;;;;;;13.70;9.15;;;;;;;20.06;72.79;101481.16;5064702;28;20139;-61
2023/09/08 07:00:39;;;;;;;16.15;9.77;;;;;;;20.14;71.80;101476.84;5078474;28;20062;-59
2023/09/08 07:03:08;;;;;;;16.73;10.05;;;;;;;20.32;72.17;101481.59;5078332;28;20164;-61
2023/09/08 07:05:35;;;;;;;14.60;9.75;;;;;;;20.40;71.48;101485.31;5081832;28;20054;-61
2023/09/08 07:08:03;;;;;;;14.55;9.43;;;;;;;20.54;70.65;101481.47;5059400;28;20088;-61
2023/09/08 07:10:30;;;;;;;14.55;9.45;;;;;;;20.64;70.01;101481.50;5056773;28;20493;-62
2023/09/08 07:12:57;;;;;;;15.43;8.73;;;;;;;20.78;69.18;101485.63;5061733;28;20102;-61
2023/09/08 07:15:25;;;;;;;14.25;8.85;;;;;;;20.86;69.10;101488.47;5083514;28;20082;-61
2023/09/08 07:17:52;;;;;;;10.57;9.25;;;;;;;20.90;68.79;101485.38;5078673;28;20052;-61
2023/09/08 07:20:20;;;;;;;12.57;8.40;;;;;;;21.06;67.84;101481.34;5080639;28;20079;-60
2023/09/08 07:22:48;;;;;;;12.10;8.05;;;;;;;21.15;67.15;101486.69;5082892;28;20498;-61
2023/09/08 07:25:15;;;;;;;18.58;9.77;;;;;;;21.20;67.09;101484.44;5069222;28;20130;-62
2023/09/08 07:27:42;;;;;;;10.30;7.28;;;;;;;21.31;66.68;101488.00;5085658;28;20568;-62
2023/09/08 07:30:12;;;;;;;10.27;7.82;;;;;;;21.51;66.16;101487.06;5084093;28;20122;-60
2023/09/08 07:32:39;;;;;;;10.95;8.35;;;;;;;21.56;65.95;101486.63;5065462;28;20056;-61
2023/09/08 07:35:13;;;;;;;12.48;8.45;;;;;;;21.63;65.49;101493.13;5087057;28;20490;-61
2023/09/08 07:37:41;;;;;;;12.15;8.52;;;;;;;21.79;64.66;101489.88;5065180;28;20560;-58
2023/09/08 07:40:09;;;;;;;12.55;8.95;;;;;;;21.94;64.55;101485.78;5084221;28;20184;-58
2023/09/08 07:42:37;;;;;;;14.07;7.38;;;;;;;22.09;64.36;101495.06;5081940;28;20143;-58
2023/09/08 07:45:05;;;;;;;15.30;8.55;;;;;;;22.17;63.47;101487.19;5080502;28;20068;-60
2023/09/08 07:47:32;;;;;;;11.95;8.70;;;;;;;22.27;63.42;101491.66;5078312;28;20131;-59
2023/09/08 07:50:20;;;;;;;17.60;8.00;;;;;;;22.29;63.03;101489.66;5075623;28;20136;-60
2023/09/08 07:52:49;;;;;;;11.75;7.85;;;;;;;22.43;62.31;101487.38;5080604;28;20132;-60
2023/09/08 07:55:16;;;;;;;11.93;7.93;;;;;;;22.56;62.36;101496.94;5040442;28;20148;-64
2023/09/08 07:57:45;;;;;;;14.48;8.05;;;;;;;22.73;61.50;101505.03;5074661;28;20048;-61
2023/09/08 08:00:13;;;;;;;13.40;7.30;;;;;;;22.88;61.35;101501.91;5077701;28;20506;-59
2023/09/08 08:02:46;;;;;;;15.32;8.02;;;;;;;23.07;60.81;101504.50;5078324;28;20153;-61
2023/09/08 08:05:14;;;;;;;15.18;7.90;;;;;;;23.16;60.74;101500.91;5082094;28;20685;-60
2023/09/08 08:07:42;;;;;;;11.02;7.50;;;;;;;23.28;59.61;101511.41;5078231;28;20075;-60
2023/09/08 08:10:10;;;;;;;11.80;7.85;;;;;;;23.33;58.95;101512.69;5082972;28;20507;-61
2023/09/08 08:12:39;;;;;;;12.90;7.28;;;;;;;23.24;58.53;101506.38;5086639;28;20120;-60
2023/09/08 08:15:06;;;;;;;9.48;7.10;;;;;;;23.29;58.48;101508.59;5080436;28;20130;-62
2023/09/08 08:17:34;;;;;;;17.17;7.95;;;;;;;23.39;58.39;101511.22;5080224;28;20139;-60
2023/09/08 08:20:09;;;;;;;10.35;7.45;;;;;;;23.57;58.40;101509.38;5083157;28;20155;-61
2023/09/08 08:22:37;;;;;;;10.57;7.18;;;;;;;23.68;57.44;101509.16;5081418;28;20147;-61
2023/09/08 08:25:05;;;;;;;16.95;7.47;;;;;;;23.73;57.28;101501.50;5075370;28;20534;-61
2023/09/08 08:27:32;;;;;;;10.65;7.00;;;;;;;23.84;56.73;101499.56;5078320;28;20662;-59
2023/09/08 08:30:00;;;;;;;11.98;7.35;;;;;;;23.94;56.69;101500.31;5080200;28;20124;-61
2023/09/08 08:32:28;;;;;;;20.35;8.20;;;;;;;24.04;56.57;101489.47;5080909;28;20166;-59
2023/09/08 08:34:56;;;;;;;13.07;7.38;;;;;;;24.18;56.40;101492.44;5085355;28;20040;-61
2023/09/08 08:37:24;;;;;;;15.02;7.03;;;;;;;24.22;55.93;101496.47;5080445;28;20416;-61
2023/09/08 08:39:51;;;;;;;11.02;6.43;;;;;;;24.28;54.96;101486.94;5080607;28;20135;-63
2023/09/08 08:42:22;;;;;;;11.32;6.50;;;;;;;24.30;54.85;101495.69;5074082;28;20075;-61
2023/09/08 08:44:49;;;;;;;11.20;7.22;;;;;;;24.37;54.45;101491.41;5086510;28;20118;-62
2023/09/08 08:47:18;;;;;;;13.77;7.00;;;;;;;24.56;54.32;101493.00;5061518;28;20087;-59
2023/09/08 08:49:47;;;;;;;9.43;6.38;;;;;;;24.73;53.83;101491.25;5088776;28;20056;-61
2023/09/08 08:52:15;;;;;;;8.70;6.78;;;;;;;24.90;53.48;101492.13;5068725;28;20105;-60
2023/09/08 08:54:42;;;;;;;9.50;6.57;;;;;;;24.92;53.18;101496.38;5065457;28;20067;-61
2023/09/08 08:57:11;;;;;;;11.05;6.53;;;;;;;25.06;53.11;101489.50;5085825;28;20046;-61
2023/09/08 08:59:38;;;;;;;11.60;6.85;;;;;;;25.20;52.53;101483.50;5076021;28;20044;-61
2023/09/08 09:02:08;;;;;;;9.25;6.70;;;;;;;25.36;52.33;101492.66;5083358;28;20151;-59
2023/09/08 09:04:37;;;;;;;9.25;6.75;;;;;;;25.50;51.77;101489.28;5086153;28;20761;-59
2023/09/08 09:07:06;;;;;;;8.25;5.88;;;;;;;25.62;50.10;101485.28;5082322;28;20113;-62
2023/09/08 09:09:34;;;;;;;7.82;5.97;;;;;;;25.47;49.62;101490.47;5084082;28;20071;-61
2023/09/08 09:12:02;;;;;;;13.23;6.53;;;;;;;25.54;50.00;101493.34;5089137;28;20131;-61
2023/09/08 09:14:33;;;;;;;8.43;6.32;;;;;;;25.64;49.95;101479.69;5087079;28;20174;-61
2023/09/08 09:17:04;;;;;;;10.70;6.53;;;;;;;25.71;49.24;101489.66;5086474;28;20067;-60
2023/09/08 09:19:33;;;;;;;10.02;6.22;;;;;;;25.83;48.71;101486.63;5089400;28;20105;-60
2023/09/08 09:22:00;;;;;;;17.40;6.32;;;;;;;25.65;48.87;101493.00;5083326;28;20102;-62
2023/09/08 09:24:34;;;;;;;10.20;5.82;;;;;;;25.83;48.63;101478.53;5080894;28;20075;-58
2023/09/08 09:27:04;;;;;;;10.55;6.55;;;;;;;26.00;48.75;101481.06;5078761;28;20154;-62
2023/09/08 09:29:34;;;;;;;10.80;5.45;;;;;;;25.99;48.42;101483.94;5081032;28;20147;-63
2023/09/08 09:32:06;;;;;;;12.45;5.70;;;;;;;26.10;47.88;101483.56;5082163;28;20048;-63
2023/09/08 09:34:34;;;;;;;13.60;6.13;;;;;;;26.19;48.15;101477.16;5076759;28;20188;-62
2023/09/08 09:37:05;;;;;;;8.43;6.18;;;;;;;26.30;48.03;101486.75;5066112;28;20048;-63
2023/09/08 09:39:32;;;;;;;10.27;6.25;;;;;;;26.45;47.10;101476.09;5065184;28;20156;-63
2023/09/08 09:42:00;;;;;;;8.18;5.53;;;;;;;26.20;47.51;101476.13;5087863;28;20078;-62
2023/09/08 09:44:27;;;;;;;11.20;5.80;;;;;;;26.36;47.44;101469.84;5085914;28;20059;-62
2023/09/08 09:46:54;;;;;;;7.72;5.65;;;;;;;26.47;47.28;101474.91;5086670;28;20485;-63
2023/09/08 09:49:22;;;;;;;11.63;5.90;;;;;;;26.55;46.90;101468.63;5081112;28;20052;-63
2023/09/08 09:51:50;;;;;;;9.95;5.53;;;;;;;26.63;46.54;101468.59;5081830;28;20472;-62
2023/09/08 09:54:18;;;;;;;6.63;4.93;;;;;;;26.80;46.12;101466.69;5058915;28;20126;-61
2023/09/08 09:56:50;;;;;;;7.63;5.80;;;;;;;26.76;45.80;101468.06;5078922;28;20099;-62
2023/09/08 09:59:19;;;;;;;7.10;4.88;;;;;;;26.63;45.42;101463.22;5085391;28;20102;-62
2023/09/08 10:01:48;;;;;;;8.65;5.38;;;;;;;26.83;45.47;101465.47;5076180;28;20086;-61
2023/09/08 10:04:15;;;;;;;9.20;5.00;;;;;;;26.90;45.45;101464.59;5049646;28;20039;-62
2023/09/08 10:06:43;;;;;;;7.38;5.00;;;;;;;27.04;44.76;101456.75;5088061;28;20147;-62
2023/09/08 10:09:16;;;;;;;7.55;5.60;;;;;;;27.17;43.80;101465.16;5077953;28;20617;-63
2023/09/08 10:11:49;;;;;;;9.10;4.82;;;;;;;27.37;43.81;101457.41;5078867;28;20055;-62
2023/09/08 10:14:18;;;;;;;8.98;5.00;;;;;;;27.27;42.94;101458.47;5058726;28;20048;-61
2023/09/08 10:16:49;;;;;;;9.23;5.10;;;;;;;27.23;43.10;101465.25;5083154;28;20128;-62
2023/09/08 10:19:17;;;;;;;12.82;5.50;;;;;;;27.14;42.76;101458.22;5069517;28;20062;-63
2023/09/08 10:21:48;;;;;;;7.65;4.88;;;;;;;27.14;42.93;101455.53;5067156;28;20104;-62
2023/09/08 10:24:22;;;;;;;7.28;4.90;;;;;;;27.10;43.30;101453.38;5065517;28;20143;-62
2023/09/08 10:27:05;;;;;;;10.45;5.18;;;;;;;27.39;43.04;101460.78;5082267;28;20127;-61
2023/09/08 10:29:32;;;;;;;6.82;4.90;;;;;;;27.37;42.49;101460.09;5063732;28;20112;-61
2023/09/08 10:32:00;;;;;;;5.78;4.72;;;;;;;27.53;42.36;101446.47;5085471;28;20364;-60
2023/09/08 10:34:28;;;;;;;11.98;5.35;;;;;;;27.71;42.63;101448.84;5067442;28;20269;-61
2023/09/08 10:36:56;;;;;;;8.45;4.65;;;;;;;27.92;41.96;101440.03;5066641;28;20806;-63
2023/09/08 10:39:37;;;;;;;7.25;5.30;;;;;;;28.03;41.71;101442.31;5074281;28;20064;-64
2023/09/08 10:42:17;;;;;;;8.82;5.13;;;;;;;28.13;41.91;101437.47;5078450;28;20064;-63
2023/09/08 10:44:55;;;;;;;6.22;4.70;;;;;;;28.26;41.24;101429.53;5084658;28;20115;-62
2023/09/08 10:47:24;;;;;;;7.32;4.70;;;;;;;28.43;41.27;101438.34;5081924;28;20052;-62
2023/09/08 10:49:57;;;;;;;8.18;4.80;;;;;;;28.57;40.83;101428.50;5078366;28;20136;-62
2023/09/08 10:52:27;;;;;;;6.45;4.80;;;;;;;28.72;40.96;101429.31;5079296;28;20502;-63
2023/09/08 10:54:55;;;;;;;16.80;5.85;;;;;;;28.82;40.30;101430.88;5076813;28;20090;-63
2023/09/08 10:57:24;;;;;;;8.88;4.90;;;;;;;28.89;40.87;101437.22;5076630;28;20188;-61
2023/09/08 10:59:53;;;;;;;10.82;5.03;;;;;;;29.20;40.32;101435.09;5079239;28;20712;-58
2023/09/08 11:02:35;;;;;;;6.70;5.40;;;;;;;29.45;39.70;101432.84;5074595;28;20135;-59
2023/09/08 11:05:06;;;;;;;8.63;4.22;;;;;;;29.65;38.96;101438.47;5064315;28;20075;-60
2023/09/08 11:07:35;;;;;;;8.88;4.85;;;;;;;29.77;39.20;101436.06;5084012;28;20055;-58
2023/09/08 11:10:03;;;;;;;11.82;4.72;;;;;;;29.93;38.52;101438.47;5076231;28;20560;-59
2023/09/08 11:12:31;;;;;;;10.15;4.57;;;;;;;29.94;38.75;101426.56;5086546;28;20075;-59
2023/09/08 11:15:00;;;;;;;7.70;4.78;;;;;;;29.99;37.83;101424.13;5083883;28;20908;-59
2023/09/08 11:17:28;;;;;;;6.07;4.57;;;;;;;29.88;37.85;101435.50;5083977;28;20102;-59
2023/09/08 11:19:55;;;;;;;4.63;4.20;;;;;;;29.73;36.94;101427.47;5083904;28;20087;-58
2023/09/08 11:22:26;;;;;;;6.78;4.22;;;;;;;29.50;37.60;101424.97;5085830;28;20110;-60